sensor_id;sensor_type;location;lat;lon;timestamp;P1;durP1;ratioP1;P2;durP2;ratioP2
27899;SDS011;15243;50.726;7.080;2023-05-07T00:00:35;8.43;;;5.53;;
27899;SDS011;15243;50.726;7.080;2023-05-07T00:03:03;10.32;;;6.43;;
27899;SDS011;15243;50.726;7.080;2023-05-07T04:40:54;20.08;;;12.98;;
27899;SDS011;15243;50.726;7.080;2023-05-07T04:43:22;22.30;;;14.68;;
27899;SDS011;15243;50.726;7.080;2023-05-07T04:45:50;17.25;;;13.50;;
27899;SDS011;15243;50.726;7.080;2023-05-07T04:48:18;19.65;;;13.25;;
27899;SDS011;15243;50.726;7.080;2023-05-07T04:50:49;24.13;;;16.63;;
27899;SDS011;15243;50.726;7.080;2023-05-07T04:53:17;24.13;;;15.20;;
27899;SDS011;15243;50.726;7.080;2023-05-07T04:55:45;21.58;;;15.02;;
27899;SDS011;15243;50.726;7.080;2023-05-07T04:58:12;26.40;;;15.10;;
27899;SDS011;15243;50.726;7.080;2023-05-07T05:00:39;25.98;;;15.73;;
27899;SDS011;15243;50.726;7.080;2023-05-07T05:03:06;21.90;;;15.32;;
27899;SDS011;15243;50.726;7.080;2023-05-07T05:05:33;25.33;;;15.75;;
27899;SDS011;15243;50.726;7.080;2023-05-07T05:08:00;28.38;;;15.38;;
27899;SDS011;15243;50.726;7.080;2023-05-07T05:10:27;20.80;;;14.63;;
27899;SDS011;15243;50.726;7.080;2023-05-07T05:12:54;19.83;;;14.50;;
27899;SDS011;15243;50.726;7.080;2023-05-07T05:15:21;22.08;;;14.57;;
27899;SDS011;15243;50.726;7.080;2023-05-07T05:17:48;21.92;;;15.18;;
27899;SDS011;15243;50.726;7.080;2023-05-07T05:20:15;20.25;;;13.20;;
27899;SDS011;15243;50.726;7.080;2023-05-07T05:22:43;20.25;;;12.88;;
27899;SDS011;15243;50.726;7.080;2023-05-07T05:25:10;17.70;;;13.07;;
27899;SDS011;15243;50.726;7.080;2023-05-07T05:27:36;18.42;;;13.10;;
27899;SDS011;15243;50.726;7.080;2023-05-07T05:30:03;15.68;;;12.15;;
27899;SDS011;15243;50.726;7.080;2023-05-07T05:32:32;17.45;;;11.23;;
27899;SDS011;15243;50.726;7.080;2023-05-07T05:35:00;20.77;;;12.25;;
27899;SDS011;15243;50.726;7.080;2023-05-07T05:37:26;16.17;;;11.93;;
27899;SDS011;15243;50.726;7.080;2023-05-07T05:39:53;16.90;;;11.02;;
27899;SDS011;15243;50.726;7.080;2023-05-07T05:42:21;21.27;;;12.48;;
27899;SDS011;15243;50.726;7.080;2023-05-07T05:44:49;15.55;;;10.75;;
27899;SDS011;15243;50.726;7.080;2023-05-07T05:47:15;14.32;;;10.68;;
27899;SDS011;15243;50.726;7.080;2023-05-07T05:49:42;16.75;;;11.07;;
27899;SDS011;15243;50.726;7.080;2023-05-07T05:52:11;14.20;;;10.75;;
27899;SDS011;15243;50.726;7.080;2023-05-07T05:54:40;17.05;;;10.18;;
27899;SDS011;15243;50.726;7.080;2023-05-07T05:57:06;12.20;;;9.27;;
27899;SDS011;15243;50.726;7.080;2023-05-07T05:59:33;14.43;;;8.23;;
27899;SDS011;15243;50.726;7.080;2023-05-07T06:02:02;17.85;;;8.45;;
27899;SDS011;15243;50.726;7.080;2023-05-07T06:04:29;10.10;;;7.75;;
27899;SDS011;15243;50.726;7.080;2023-05-07T06:06:56;11.35;;;7.53;;
27899;SDS011;15243;50.726;7.080;2023-05-07T06:09:23;10.10;;;6.93;;
27899;SDS011;15243;50.726;7.080;2023-05-07T06:11:50;10.73;;;6.93;;
27899;SDS011;15243;50.726;7.080;2023-05-07T06:14:17;9.93;;;6.07;;
27899;SDS011;15243;50.726;7.080;2023-05-07T06:16:44;8.20;;;6.15;;
27899;SDS011;15243;50.726;7.080;2023-05-07T06:19:12;8.32;;;5.10;;
27899;SDS011;15243;50.726;7.080;2023-05-07T06:21:39;9.52;;;5.90;;
27899;SDS011;15243;50.726;7.080;2023-05-07T06:24:06;9.95;;;5.57;;
27899;SDS011;15243;50.726;7.080;2023-05-07T06:26:35;7.03;;;5.35;;
27899;SDS011;15243;50.726;7.080;2023-05-07T06:29:02;11.05;;;5.80;;
27899;SDS011;15243;50.726;7.080;2023-05-07T06:31:30;7.75;;;5.10;;
27899;SDS011;15243;50.726;7.080;2023-05-07T06:33:58;8.30;;;5.18;;
27899;SDS011;15243;50.726;7.080;2023-05-07T06:36:25;8.02;;;5.15;;
27899;SDS011;15243;50.726;7.080;2023-05-07T06:38:52;8.20;;;5.80;;
27899;SDS011;15243;50.726;7.080;2023-05-07T06:41:19;5.50;;;4.53;;
27899;SDS011;15243;50.726;7.080;2023-05-07T06:43:46;7.93;;;4.32;;
27899;SDS011;15243;50.726;7.080;2023-05-07T06:46:13;7.82;;;4.25;;
27899;SDS011;15243;50.726;7.080;2023-05-07T06:48:41;6.72;;;4.20;;
27899;SDS011;15243;50.726;7.080;2023-05-07T06:51:08;6.10;;;3.85;;
27899;SDS011;15243;50.726;7.080;2023-05-07T06:53:35;4.93;;;4.05;;
27899;SDS011;15243;50.726;7.080;2023-05-07T06:56:02;5.60;;;4.25;;
27899;SDS011;15243;50.726;7.080;2023-05-07T06:58:29;5.45;;;3.72;;
27899;SDS011;15243;50.726;7.080;2023-05-07T07:00:56;6.05;;;3.85;;
27899;SDS011;15243;50.726;7.080;2023-05-07T07:03:23;7.60;;;3.92;;
27899;SDS011;15243;50.726;7.080;2023-05-07T07:05:53;5.88;;;3.83;;
27899;SDS011;15243;50.726;7.080;2023-05-07T07:08:21;6.72;;;3.78;;
27899;SDS011;15243;50.726;7.080;2023-05-07T07:10:48;8.35;;;3.95;;
27899;SDS011;15243;50.726;7.080;2023-05-07T07:13:15;5.47;;;3.65;;
27899;SDS011;15243;50.726;7.080;2023-05-07T07:15:42;4.18;;;3.03;;
27899;SDS011;15243;50.726;7.080;2023-05-07T07:18:10;10.30;;;3.78;;
27899;SDS011;15243;50.726;7.080;2023-05-07T07:20:37;6.93;;;3.53;;
27899;SDS011;15243;50.726;7.080;2023-05-07T07:23:04;6.90;;;3.15;;
27899;SDS011;15243;50.726;7.080;2023-05-07T07:25:31;5.78;;;3.95;;
27899;SDS011;15243;50.726;7.080;2023-05-07T07:27:58;5.30;;;2.95;;
27899;SDS011;15243;50.726;7.080;2023-05-07T07:30:25;9.05;;;3.25;;
27899;SDS011;15243;50.726;7.080;2023-05-07T07:32:52;4.47;;;3.28;;
27899;SDS011;15243;50.726;7.080;2023-05-07T07:35:19;5.50;;;3.47;;
27899;SDS011;15243;50.726;7.080;2023-05-07T07:37:46;5.57;;;3.30;;
27899;SDS011;15243;50.726;7.080;2023-05-07T07:40:16;6.90;;;3.33;;
27899;SDS011;15243;50.726;7.080;2023-05-07T07:42:43;7.07;;;3.25;;
27899;SDS011;15243;50.726;7.080;2023-05-07T07:45:10;4.75;;;3.30;;
27899;SDS011;15243;50.726;7.080;2023-05-07T07:47:38;6.63;;;3.10;;
27899;SDS011;15243;50.726;7.080;2023-05-07T07:50:06;3.65;;;2.60;;
27899;SDS011;15243;50.726;7.080;2023-05-07T07:52:34;3.40;;;2.75;;
27899;SDS011;15243;50.726;7.080;2023-05-07T07:55:01;4.18;;;2.65;;
27899;SDS011;15243;50.726;7.080;2023-05-07T07:57:29;3.83;;;2.50;;
27899;SDS011;15243;50.726;7.080;2023-05-07T07:59:56;6.47;;;2.95;;
27899;SDS011;15243;50.726;7.080;2023-05-07T08:02:23;4.60;;;2.38;;
27899;SDS011;15243;50.726;7.080;2023-05-07T08:04:50;5.07;;;2.83;;
27899;SDS011;15243;50.726;7.080;2023-05-07T08:07:18;2.78;;;2.15;;
27899;SDS011;15243;50.726;7.080;2023-05-07T08:09:46;3.90;;;2.55;;
27899;SDS011;15243;50.726;7.080;2023-05-07T08:12:14;5.00;;;2.65;;
27899;SDS011;15243;50.726;7.080;2023-05-07T08:14:41;6.15;;;2.58;;
27899;SDS011;15243;50.726;7.080;2023-05-07T08:17:08;4.72;;;2.75;;
27899;SDS011;15243;50.726;7.080;2023-05-07T08:19:36;4.10;;;2.47;;
27899;SDS011;15243;50.726;7.080;2023-05-07T08:22:03;4.75;;;2.13;;
27899;SDS011;15243;50.726;7.080;2023-05-07T08:24:33;3.63;;;2.28;;
27899;SDS011;15243;50.726;7.080;2023-05-07T08:27:00;3.22;;;2.03;;
27899;SDS011;15243;50.726;7.080;2023-05-07T08:29:27;3.72;;;2.30;;
27899;SDS011;15243;50.726;7.080;2023-05-07T08:31:54;2.08;;;1.80;;
27899;SDS011;15243;50.726;7.080;2023-05-07T08:34:21;4.53;;;1.85;;
27899;SDS011;15243;50.726;7.080;2023-05-07T08:36:49;3.25;;;1.90;;
27899;SDS011;15243;50.726;7.080;2023-05-07T08:39:15;5.07;;;1.70;;
27899;SDS011;15243;50.726;7.080;2023-05-07T08:41:45;4.65;;;1.90;;
27899;SDS011;15243;50.726;7.080;2023-05-07T08:44:14;4.50;;;1.80;;
27899;SDS011;15243;50.726;7.080;2023-05-07T08:46:46;4.73;;;2.20;;
27899;SDS011;15243;50.726;7.080;2023-05-07T08:49:16;2.17;;;1.90;;
27899;SDS011;15243;50.726;7.080;2023-05-07T08:51:43;4.38;;;1.90;;
27899;SDS011;15243;50.726;7.080;2023-05-07T08:54:10;3.70;;;2.00;;
27899;SDS011;15243;50.726;7.080;2023-05-07T08:56:39;2.78;;;1.90;;
27899;SDS011;15243;50.726;7.080;2023-05-07T08:59:06;3.63;;;1.88;;
27899;SDS011;15243;50.726;7.080;2023-05-07T09:01:33;4.63;;;2.17;;
27899;SDS011;15243;50.726;7.080;2023-05-07T09:04:02;3.50;;;2.30;;
27899;SDS011;15243;50.726;7.080;2023-05-07T09:06:30;5.20;;;1.90;;
27899;SDS011;15243;50.726;7.080;2023-05-07T09:08:57;3.97;;;2.05;;
27899;SDS011;15243;50.726;7.080;2023-05-07T09:11:27;2.47;;;1.77;;
27899;SDS011;15243;50.726;7.080;2023-05-07T09:13:54;2.83;;;1.60;;
27899;SDS011;15243;50.726;7.080;2023-05-07T09:16:24;4.07;;;1.83;;
27899;SDS011;15243;50.726;7.080;2023-05-07T09:18:53;5.93;;;1.67;;
27899;SDS011;15243;50.726;7.080;2023-05-07T09:21:21;3.97;;;1.67;;
27899;SDS011;15243;50.726;7.080;2023-05-07T09:23:52;2.10;;;1.90;;
27899;SDS011;15243;50.726;7.080;2023-05-07T09:26:21;5.50;;;2.13;;
27899;SDS011;15243;50.726;7.080;2023-05-07T09:28:48;5.35;;;1.80;;
27899;SDS011;15243;50.726;7.080;2023-05-07T09:31:15;4.38;;;1.80;;
27899;SDS011;15243;50.726;7.080;2023-05-07T09:33:46;6.15;;;1.95;;
27899;SDS011;15243;50.726;7.080;2023-05-07T09:36:13;3.10;;;1.38;;
27899;SDS011;15243;50.726;7.080;2023-05-07T09:38:40;1.95;;;1.50;;
27899;SDS011;15243;50.726;7.080;2023-05-07T09:41:09;5.97;;;1.90;;
27899;SDS011;15243;50.726;7.080;2023-05-07T09:43:39;3.35;;;1.77;;
27899;SDS011;15243;50.726;7.080;2023-05-07T09:46:12;4.35;;;1.60;;
27899;SDS011;15243;50.726;7.080;2023-05-07T09:48:41;2.95;;;1.70;;
27899;SDS011;15243;50.726;7.080;2023-05-07T09:51:11;4.45;;;1.70;;
27899;SDS011;15243;50.726;7.080;2023-05-07T09:53:50;4.40;;;1.98;;
27899;SDS011;15243;50.726;7.080;2023-05-07T09:56:18;4.22;;;1.70;;
27899;SDS011;15243;50.726;7.080;2023-05-07T09:58:46;3.15;;;1.60;;
27899;SDS011;15243;50.726;7.080;2023-05-07T10:01:13;2.65;;;1.80;;
27899;SDS011;15243;50.726;7.080;2023-05-07T10:03:40;5.80;;;1.90;;
27899;SDS011;15243;50.726;7.080;2023-05-07T10:06:10;2.47;;;1.92;;
27899;SDS011;15243;50.726;7.080;2023-05-07T10:08:39;2.78;;;1.60;;
27899;SDS011;15243;50.726;7.080;2023-05-07T10:11:06;2.38;;;1.50;;
27899;SDS011;15243;50.726;7.080;2023-05-07T10:13:33;4.25;;;1.95;;
27899;SDS011;15243;50.726;7.080;2023-05-07T10:16:05;1.95;;;1.65;;
27899;SDS011;15243;50.726;7.080;2023-05-07T10:18:32;2.35;;;1.27;;
27899;SDS011;15243;50.726;7.080;2023-05-07T10:26:04;2.30;;;1.40;;
27899;SDS011;15243;50.726;7.080;2023-05-07T10:28:39;3.30;;;1.88;;
27899;SDS011;15243;50.726;7.080;2023-05-07T10:33:58;4.63;;;1.50;;
27899;SDS011;15243;50.726;7.080;2023-05-07T10:36:27;3.10;;;1.55;;
27899;SDS011;15243;50.726;7.080;2023-05-07T10:38:54;3.00;;;1.30;;
27899;SDS011;15243;50.726;7.080;2023-05-07T10:41:22;2.88;;;1.60;;
27899;SDS011;15243;50.726;7.080;2023-05-07T10:43:49;1.40;;;1.30;;
27899;SDS011;15243;50.726;7.080;2023-05-07T10:51:30;2.85;;;1.60;;
27899;SDS011;15243;50.726;7.080;2023-05-07T10:56:38;2.33;;;1.58;;
27899;SDS011;15243;50.726;7.080;2023-05-07T11:01:55;3.03;;;1.40;;
27899;SDS011;15243;50.726;7.080;2023-05-07T11:04:33;3.05;;;1.30;;
27899;SDS011;15243;50.726;7.080;2023-05-07T11:15:08;2.00;;;1.30;;
27899;SDS011;15243;50.726;7.080;2023-05-07T11:17:53;2.53;;;1.35;;
27899;SDS011;15243;50.726;7.080;2023-05-07T11:20:55;4.07;;;1.30;;
27899;SDS011;15243;50.726;7.080;2023-05-07T11:26:03;12.75;;;1.88;;
27899;SDS011;15243;50.726;7.080;2023-05-07T11:28:31;4.32;;;1.50;;
27899;SDS011;15243;50.726;7.080;2023-05-07T11:31:03;1.95;;;1.50;;
27899;SDS011;15243;50.726;7.080;2023-05-07T11:33:31;1.45;;;1.30;;
27899;SDS011;15243;50.726;7.080;2023-05-07T11:35:59;2.90;;;1.40;;
27899;SDS011;15243;50.726;7.080;2023-05-07T11:38:29;1.85;;;1.50;;
27899;SDS011;15243;50.726;7.080;2023-05-07T11:40:57;3.50;;;1.63;;
27899;SDS011;15243;50.726;7.080;2023-05-07T11:43:33;5.53;;;1.45;;
27899;SDS011;15243;50.726;7.080;2023-05-07T11:46:05;2.70;;;1.58;;
27899;SDS011;15243;50.726;7.080;2023-05-07T11:48:34;3.55;;;1.30;;
27899;SDS011;15243;50.726;7.080;2023-05-07T11:51:03;5.70;;;1.50;;
27899;SDS011;15243;50.726;7.080;2023-05-07T11:53:41;8.77;;;1.85;;
27899;SDS011;15243;50.726;7.080;2023-05-07T11:56:09;6.63;;;1.48;;
27899;SDS011;15243;50.726;7.080;2023-05-07T11:58:37;4.30;;;1.45;;
27899;SDS011;15243;50.726;7.080;2023-05-07T12:01:06;1.88;;;1.40;;
27899;SDS011;15243;50.726;7.080;2023-05-07T12:03:35;1.27;;;1.17;;
27899;SDS011;15243;50.726;7.080;2023-05-07T12:06:09;2.80;;;1.45;;
27899;SDS011;15243;50.726;7.080;2023-05-07T12:08:38;2.90;;;1.15;;
27899;SDS011;15243;50.726;7.080;2023-05-07T12:11:07;3.20;;;1.20;;
27899;SDS011;15243;50.726;7.080;2023-05-07T12:13:35;2.78;;;1.10;;
27899;SDS011;15243;50.726;7.080;2023-05-07T12:16:03;2.25;;;1.40;;
27899;SDS011;15243;50.726;7.080;2023-05-07T12:18:32;2.63;;;1.17;;
27899;SDS011;15243;50.726;7.080;2023-05-07T12:21:01;1.75;;;1.15;;
27899;SDS011;15243;50.726;7.080;2023-05-07T12:23:28;3.80;;;1.60;;
27899;SDS011;15243;50.726;7.080;2023-05-07T12:25:56;2.47;;;1.35;;
27899;SDS011;15243;50.726;7.080;2023-05-07T12:28:23;1.75;;;1.50;;
27899;SDS011;15243;50.726;7.080;2023-05-07T12:30:50;3.67;;;1.50;;
27899;SDS011;15243;50.726;7.080;2023-05-07T12:33:18;4.78;;;1.48;;
27899;SDS011;15243;50.726;7.080;2023-05-07T12:35:50;2.53;;;1.50;;
27899;SDS011;15243;50.726;7.080;2023-05-07T12:38:17;2.92;;;1.60;;
27899;SDS011;15243;50.726;7.080;2023-05-07T12:40:45;1.58;;;1.40;;
27899;SDS011;15243;50.726;7.080;2023-05-07T12:45:48;1.33;;;1.23;;
27899;SDS011;15243;50.726;7.080;2023-05-07T12:48:16;3.63;;;1.35;;
27899;SDS011;15243;50.726;7.080;2023-05-07T12:50:44;1.45;;;1.33;;
27899;SDS011;15243;50.726;7.080;2023-05-07T12:53:11;1.20;;;1.00;;
27899;SDS011;15243;50.726;7.080;2023-05-07T12:55:45;2.15;;;1.52;;
27899;SDS011;15243;50.726;7.080;2023-05-07T12:58:17;2.72;;;1.23;;
27899;SDS011;15243;50.726;7.080;2023-05-07T13:00:53;6.35;;;1.20;;
27899;SDS011;15243;50.726;7.080;2023-05-07T13:03:33;3.33;;;1.50;;
27899;SDS011;15243;50.726;7.080;2023-05-07T13:06:03;3.05;;;1.58;;
27899;SDS011;15243;50.726;7.080;2023-05-07T13:08:32;6.47;;;1.45;;
27899;SDS011;15243;50.726;7.080;2023-05-07T13:11:00;2.13;;;1.50;;
27899;SDS011;15243;50.726;7.080;2023-05-07T13:13:32;3.67;;;1.55;;
27899;SDS011;15243;50.726;7.080;2023-05-07T13:16:01;2.10;;;1.35;;
27899;SDS011;15243;50.726;7.080;2023-05-07T13:18:30;2.35;;;1.50;;
27899;SDS011;15243;50.726;7.080;2023-05-07T13:20:58;6.53;;;1.70;;
27899;SDS011;15243;50.726;7.080;2023-05-07T13:23:25;2.88;;;1.60;;
27899;SDS011;15243;50.726;7.080;2023-05-07T13:25:52;3.60;;;1.60;;
27899;SDS011;15243;50.726;7.080;2023-05-07T13:28:23;2.20;;;1.58;;
27899;SDS011;15243;50.726;7.080;2023-05-07T13:30:52;2.58;;;2.13;;
27899;SDS011;15243;50.726;7.080;2023-05-07T13:33:20;4.28;;;2.33;;
27899;SDS011;15243;50.726;7.080;2023-05-07T13:35:47;4.18;;;2.13;;
27899;SDS011;15243;50.726;7.080;2023-05-07T13:38:14;3.40;;;2.00;;
27899;SDS011;15243;50.726;7.080;2023-05-07T13:40:42;3.63;;;1.60;;
27899;SDS011;15243;50.726;7.080;2023-05-07T13:43:09;4.93;;;1.90;;
27899;SDS011;15243;50.726;7.080;2023-05-07T13:45:36;4.97;;;1.92;;
27899;SDS011;15243;50.726;7.080;2023-05-07T13:48:04;3.92;;;1.63;;
27899;SDS011;15243;50.726;7.080;2023-05-07T13:50:31;3.22;;;1.90;;
27899;SDS011;15243;50.726;7.080;2023-05-07T13:52:58;2.67;;;1.70;;
27899;SDS011;15243;50.726;7.080;2023-05-07T13:55:28;3.35;;;1.73;;
27899;SDS011;15243;50.726;7.080;2023-05-07T13:57:56;3.47;;;1.88;;
27899;SDS011;15243;50.726;7.080;2023-05-07T14:00:25;2.38;;;1.55;;
27899;SDS011;15243;50.726;7.080;2023-05-07T14:02:52;2.53;;;1.75;;
27899;SDS011;15243;50.726;7.080;2023-05-07T14:05:20;4.00;;;1.90;;
27899;SDS011;15243;50.726;7.080;2023-05-07T14:07:50;2.45;;;1.88;;
27899;SDS011;15243;50.726;7.080;2023-05-07T14:10:18;4.05;;;2.30;;
27899;SDS011;15243;50.726;7.080;2023-05-07T14:12:46;4.60;;;2.22;;
27899;SDS011;15243;50.726;7.080;2023-05-07T14:15:14;3.55;;;1.73;;
27899;SDS011;15243;50.726;7.080;2023-05-07T14:17:43;2.95;;;1.90;;
27899;SDS011;15243;50.726;7.080;2023-05-07T14:20:11;5.20;;;2.15;;
27899;SDS011;15243;50.726;7.080;2023-05-07T14:22:39;2.85;;;1.92;;
27899;SDS011;15243;50.726;7.080;2023-05-07T14:25:06;2.67;;;2.03;;
27899;SDS011;15243;50.726;7.080;2023-05-07T14:27:34;3.45;;;1.58;;
27899;SDS011;15243;50.726;7.080;2023-05-07T14:30:00;3.55;;;1.70;;
27899;SDS011;15243;50.726;7.080;2023-05-07T14:32:28;3.45;;;1.42;;
27899;SDS011;15243;50.726;7.080;2023-05-07T14:34:55;2.92;;;1.25;;
27899;SDS011;15243;50.726;7.080;2023-05-07T14:37:21;3.72;;;1.20;;
27899;SDS011;15243;50.726;7.080;2023-05-07T14:39:50;2.28;;;1.50;;
27899;SDS011;15243;50.726;7.080;2023-05-07T14:42:17;5.55;;;1.50;;
27899;SDS011;15243;50.726;7.080;2023-05-07T14:44:44;1.70;;;1.42;;
27899;SDS011;15243;50.726;7.080;2023-05-07T14:47:12;3.60;;;1.55;;
27899;SDS011;15243;50.726;7.080;2023-05-07T14:49:45;2.95;;;1.77;;
27899;SDS011;15243;50.726;7.080;2023-05-07T14:52:12;2.22;;;1.45;;
27899;SDS011;15243;50.726;7.080;2023-05-07T14:54:39;3.15;;;1.48;;
27899;SDS011;15243;50.726;7.080;2023-05-07T14:57:08;1.98;;;1.30;;
27899;SDS011;15243;50.726;7.080;2023-05-07T14:59:37;3.53;;;1.45;;
27899;SDS011;15243;50.726;7.080;2023-05-07T15:02:04;2.53;;;1.42;;
27899;SDS011;15243;50.726;7.080;2023-05-07T15:04:34;2.60;;;1.50;;
27899;SDS011;15243;50.726;7.080;2023-05-07T15:07:01;1.75;;;1.10;;
27899;SDS011;15243;50.726;7.080;2023-05-07T15:09:29;3.30;;;1.35;;
27899;SDS011;15243;50.726;7.080;2023-05-07T15:11:56;2.45;;;1.50;;
27899;SDS011;15243;50.726;7.080;2023-05-07T15:14:23;1.58;;;1.40;;
27899;SDS011;15243;50.726;7.080;2023-05-07T15:16:50;4.57;;;1.80;;
27899;SDS011;15243;50.726;7.080;2023-05-07T15:19:19;2.15;;;1.92;;
27899;SDS011;15243;50.726;7.080;2023-05-07T15:21:48;2.47;;;2.28;;
27899;SDS011;15243;50.726;7.080;2023-05-07T15:24:15;5.95;;;2.83;;
27899;SDS011;15243;50.726;7.080;2023-05-07T15:26:42;4.43;;;2.25;;
27899;SDS011;15243;50.726;7.080;2023-05-07T15:29:09;2.47;;;2.28;;
27899;SDS011;15243;50.726;7.080;2023-05-07T15:31:40;5.65;;;2.50;;
27899;SDS011;15243;50.726;7.080;2023-05-07T15:34:09;5.10;;;2.45;;
27899;SDS011;15243;50.726;7.080;2023-05-07T15:36:36;6.13;;;2.70;;
27899;SDS011;15243;50.726;7.080;2023-05-07T15:39:04;6.32;;;2.72;;
27899;SDS011;15243;50.726;7.080;2023-05-07T15:41:31;7.40;;;2.88;;
27899;SDS011;15243;50.726;7.080;2023-05-07T15:43:59;7.20;;;2.53;;
27899;SDS011;15243;50.726;7.080;2023-05-07T15:46:28;6.60;;;2.63;;
27899;SDS011;15243;50.726;7.080;2023-05-07T15:48:55;4.57;;;2.58;;
27899;SDS011;15243;50.726;7.080;2023-05-07T15:51:22;3.63;;;2.40;;
27899;SDS011;15243;50.726;7.080;2023-05-07T15:53:50;7.18;;;2.80;;
27899;SDS011;15243;50.726;7.080;2023-05-07T15:56:19;3.17;;;2.15;;
27899;SDS011;15243;50.726;7.080;2023-05-07T15:58:47;5.78;;;2.42;;
27899;SDS011;15243;50.726;7.080;2023-05-07T16:01:14;4.35;;;2.60;;
27899;SDS011;15243;50.726;7.080;2023-05-07T16:03:41;4.68;;;2.45;;
27899;SDS011;15243;50.726;7.080;2023-05-07T16:06:09;7.70;;;2.85;;
27899;SDS011;15243;50.726;7.080;2023-05-07T16:08:38;4.47;;;3.25;;
27899;SDS011;15243;50.726;7.080;2023-05-07T16:11:07;6.75;;;3.17;;
27899;SDS011;15243;50.726;7.080;2023-05-07T16:13:34;9.73;;;6.85;;
27899;SDS011;15243;50.726;7.080;2023-05-07T16:16:02;12.57;;;6.90;;
27899;SDS011;15243;50.726;7.080;2023-05-07T16:18:29;8.70;;;4.20;;
27899;SDS011;15243;50.726;7.080;2023-05-07T16:20:56;7.95;;;2.90;;
27899;SDS011;15243;50.726;7.080;2023-05-07T16:23:25;9.60;;;6.68;;
27899;SDS011;15243;50.726;7.080;2023-05-07T16:25:53;16.40;;;10.00;;
27899;SDS011;15243;50.726;7.080;2023-05-07T16:28:20;9.82;;;7.47;;
27899;SDS011;15243;50.726;7.080;2023-05-07T16:30:50;8.52;;;3.17;;
27899;SDS011;15243;50.726;7.080;2023-05-07T16:33:17;6.72;;;3.95;;
27899;SDS011;15243;50.726;7.080;2023-05-07T16:35:49;7.57;;;3.08;;
27899;SDS011;15243;50.726;7.080;2023-05-07T16:38:17;6.88;;;3.70;;
27899;SDS011;15243;50.726;7.080;2023-05-07T16:40:46;6.57;;;2.97;;
27899;SDS011;15243;50.726;7.080;2023-05-07T16:43:14;5.22;;;2.83;;
27899;SDS011;15243;50.726;7.080;2023-05-07T16:45:43;5.45;;;2.88;;
27899;SDS011;15243;50.726;7.080;2023-05-07T16:48:12;7.55;;;2.95;;
27899;SDS011;15243;50.726;7.080;2023-05-07T16:50:40;5.63;;;3.10;;
27899;SDS011;15243;50.726;7.080;2023-05-07T16:53:09;6.75;;;3.80;;
27899;SDS011;15243;50.726;7.080;2023-05-07T16:55:36;11.43;;;3.20;;
27899;SDS011;15243;50.726;7.080;2023-05-07T16:58:08;8.65;;;4.05;;
27899;SDS011;15243;50.726;7.080;2023-05-07T17:00:36;6.30;;;3.50;;
27899;SDS011;15243;50.726;7.080;2023-05-07T17:03:16;4.85;;;3.20;;
27899;SDS011;15243;50.726;7.080;2023-05-07T17:05:43;5.97;;;3.67;;
27899;SDS011;15243;50.726;7.080;2023-05-07T17:08:10;6.97;;;3.58;;
27899;SDS011;15243;50.726;7.080;2023-05-07T17:10:39;6.63;;;3.75;;
27899;SDS011;15243;50.726;7.080;2023-05-07T17:13:06;6.40;;;3.63;;
27899;SDS011;15243;50.726;7.080;2023-05-07T17:15:33;6.15;;;3.78;;
27899;SDS011;15243;50.726;7.080;2023-05-07T17:18:00;7.07;;;4.43;;
27899;SDS011;15243;50.726;7.080;2023-05-07T17:20:27;6.50;;;4.65;;
27899;SDS011;15243;50.726;7.080;2023-05-07T17:22:54;8.30;;;5.15;;
27899;SDS011;15243;50.726;7.080;2023-05-07T17:25:21;11.45;;;5.32;;
27899;SDS011;15243;50.726;7.080;2023-05-07T17:27:48;14.85;;;5.15;;
27899;SDS011;15243;50.726;7.080;2023-05-07T17:30:15;11.38;;;5.75;;
27899;SDS011;15243;50.726;7.080;2023-05-07T17:32:42;7.43;;;5.05;;
27899;SDS011;15243;50.726;7.080;2023-05-07T17:35:09;7.60;;;5.20;;
27899;SDS011;15243;50.726;7.080;2023-05-07T17:37:36;9.60;;;4.88;;
27899;SDS011;15243;50.726;7.080;2023-05-07T17:40:03;14.25;;;5.43;;
27899;SDS011;15243;50.726;7.080;2023-05-07T17:42:30;11.65;;;6.07;;
27899;SDS011;15243;50.726;7.080;2023-05-07T17:44:57;8.27;;;6.15;;
27899;SDS011;15243;50.726;7.080;2023-05-07T17:47:24;10.95;;;6.78;;
27899;SDS011;15243;50.726;7.080;2023-05-07T17:49:51;12.90;;;7.53;;
27899;SDS011;15243;50.726;7.080;2023-05-07T17:52:18;11.90;;;7.95;;
27899;SDS011;15243;50.726;7.080;2023-05-07T17:54:44;12.68;;;6.88;;
27899;SDS011;15243;50.726;7.080;2023-05-07T17:57:11;12.23;;;8.00;;
27899;SDS011;15243;50.726;7.080;2023-05-07T17:59:38;14.50;;;7.85;;
27899;SDS011;15243;50.726;7.080;2023-05-07T18:02:05;10.32;;;7.70;;
27899;SDS011;15243;50.726;7.080;2023-05-07T18:04:32;11.23;;;6.68;;
27899;SDS011;15243;50.726;7.080;2023-05-07T18:06:59;9.73;;;7.10;;
27899;SDS011;15243;50.726;7.080;2023-05-07T18:09:25;11.15;;;7.60;;
27899;SDS011;15243;50.726;7.080;2023-05-07T18:11:52;14.73;;;7.57;;
27899;SDS011;15243;50.726;7.080;2023-05-07T18:14:19;14.63;;;7.80;;
27899;SDS011;15243;50.726;7.080;2023-05-07T18:16:49;11.52;;;7.50;;
27899;SDS011;15243;50.726;7.080;2023-05-07T18:19:16;12.07;;;8.23;;
27899;SDS011;15243;50.726;7.080;2023-05-07T18:21:43;14.57;;;8.10;;
27899;SDS011;15243;50.726;7.080;2023-05-07T18:24:10;8.95;;;7.45;;
27899;SDS011;15243;50.726;7.080;2023-05-07T18:26:37;12.93;;;8.23;;
27899;SDS011;15243;50.726;7.080;2023-05-07T18:29:03;15.75;;;8.07;;
27899;SDS011;15243;50.726;7.080;2023-05-07T18:31:30;9.48;;;7.55;;
27899;SDS011;15243;50.726;7.080;2023-05-07T18:33:59;10.95;;;7.82;;
27899;SDS011;15243;50.726;7.080;2023-05-07T18:36:26;14.15;;;8.35;;
27899;SDS011;15243;50.726;7.080;2023-05-07T18:38:53;17.25;;;9.02;;
27899;SDS011;15243;50.726;7.080;2023-05-07T18:41:20;12.07;;;8.32;;
27899;SDS011;15243;50.726;7.080;2023-05-07T18:43:47;13.55;;;8.70;;
27899;SDS011;15243;50.726;7.080;2023-05-07T18:46:14;14.90;;;9.23;;
27899;SDS011;15243;50.726;7.080;2023-05-07T18:48:42;13.15;;;8.52;;
27899;SDS011;15243;50.726;7.080;2023-05-07T18:51:09;13.55;;;8.40;;
27899;SDS011;15243;50.726;7.080;2023-05-07T18:53:38;11.45;;;7.40;;
27899;SDS011;15243;50.726;7.080;2023-05-07T18:56:05;11.20;;;7.95;;
27899;SDS011;15243;50.726;7.080;2023-05-07T18:58:33;14.75;;;7.75;;
27899;SDS011;15243;50.726;7.080;2023-05-07T19:01:00;14.88;;;7.93;;
27899;SDS011;15243;50.726;7.080;2023-05-07T19:03:28;14.55;;;8.15;;
27899;SDS011;15243;50.726;7.080;2023-05-07T19:05:58;12.80;;;7.75;;
27899;SDS011;15243;50.726;7.080;2023-05-07T19:08:27;14.20;;;7.90;;
27899;SDS011;15243;50.726;7.080;2023-05-07T19:11:00;13.63;;;8.50;;
27899;SDS011;15243;50.726;7.080;2023-05-07T19:13:29;12.27;;;8.30;;
27899;SDS011;15243;50.726;7.080;2023-05-07T19:15:58;14.38;;;8.80;;
27899;SDS011;15243;50.726;7.080;2023-05-07T19:18:28;15.85;;;8.70;;
27899;SDS011;15243;50.726;7.080;2023-05-07T19:21:12;12.73;;;8.32;;
27899;SDS011;15243;50.726;7.080;2023-05-07T19:23:41;11.52;;;8.52;;
27899;SDS011;15243;50.726;7.080;2023-05-07T19:26:09;12.98;;;9.13;;
27899;SDS011;15243;50.726;7.080;2023-05-07T19:28:37;18.15;;;9.98;;
27899;SDS011;15243;50.726;7.080;2023-05-07T19:31:17;15.75;;;9.27;;
27899;SDS011;15243;50.726;7.080;2023-05-07T19:33:45;16.60;;;9.38;;
27899;SDS011;15243;50.726;7.080;2023-05-07T19:36:18;18.20;;;9.95;;
27899;SDS011;15243;50.726;7.080;2023-05-07T19:38:46;15.32;;;10.02;;
27899;SDS011;15243;50.726;7.080;2023-05-07T19:41:15;14.75;;;9.07;;
27899;SDS011;15243;50.726;7.080;2023-05-07T19:43:42;14.95;;;10.02;;
27899;SDS011;15243;50.726;7.080;2023-05-07T19:46:09;11.52;;;9.93;;
27899;SDS011;15243;50.726;7.080;2023-05-07T19:48:47;14.98;;;9.88;;
27899;SDS011;15243;50.726;7.080;2023-05-07T19:51:14;13.65;;;9.50;;
27899;SDS011;15243;50.726;7.080;2023-05-07T19:53:41;13.88;;;9.40;;
27899;SDS011;15243;50.726;7.080;2023-05-07T19:56:11;13.85;;;9.68;;